Aérodrome :
LOGIN :

S'inscrire | Disclaimer

   EN    FR    IT 

 










Légende :    VFR   VFR Marginal   IFR   IFR Intensif   IFR Très Intensif
Visi : 
Plafond : 
>= 8 km
>= 3000ft
5 à 8 km
1000 à 3000 ft
1500m à 5 km
500 à 1000 ft
800 à 1500m
200 à 500 ft
< 800m
< 200 ft
Symboles :   Orages  Brouillard  Fortes neiges  Fortes précipitations  Vent > 20 kt
SIGMETs :   Divers  Orages  Givrage  Turbulence  Onde Orograph.  Cendres Volcan.







- Altitude de l'aérodrome : 3 ft
- Code IATA : DHR


EHKD - Den Helder De Kooy

DERNIER METAR :
  • 172257Z AUTO 26010KT 220V290 4700 +DZ FEW002 BKN006 BKN008 FEW015CB 07/07 Q1013 YLO

METARs EXPIRÉS :
  • 172248Z AUTO 23013KT 190V260 2700 R21/2500D +DZ SCT002 BKN004 BKN005 FEW015CB 07/07 Q1013 AMB
  • 172225Z AUTO 21018KT 190V250 4500 DZRA SCT003 BKN004 FEW015CB 06/06 Q1014 YLO
  • 172155Z AUTO 22019G30KT 180V250 4800 DZ BKN005 BKN006 FEW015CB 06/05 Q1014 YLO
  • 172125Z AUTO 20020KT 6000 DZ BKN004 BKN005 FEW015CB 05/04 Q1015 YLO
  • 172055Z AUTO 20020KT 3900 -RA SCT005 BKN006 BKN007 FEW015CB 05/04 Q1015 RERA REDZ YLO
  • 172029Z AUTO 19018KT 4600 DZ FEW005 BKN006 BKN008 FEW015CB 04/04 Q1015 YLO
  • 172025Z AUTO 19020KT 4800 DZ FEW005 BKN007 BKN008 FEW015CB 05/04 Q1015 GRN
  • 172016Z AUTO 20020KT 5000 -RA FEW005 BKN007 BKN008 FEW015CB 05/04 Q1015 GRN

TAF TAF EHKD
Valide du 17 à 18h jusqu'au 18 à 06h UTC


171729Z 1718/1806 22020KT 9999 BKN030 OVC070
BECMG 1718/1720 20022G32KT 5000 -RA SCT015 BKN020 OVC050
TEMPO 1720/1802 2000 DZRA BKN006 OVC010
BECMG 1800/1802 33018KT 9999 NSW SCT017
Pas de NOTAMs connus pour ce terrain.



MET'MAP, la Météo Aéronautique d'un coup d'oeil ! - Copyright ORBIFLY Décembre 2007 - Disclaimer

ORBIFLY MET'MAP TEAM :

Programmation & Développement : Alexandra Zaïnal
Conception & Développement : Baudouin d'Aumeries
Co-Programmation & Développement : Marc-Olivier Méhu
Soutien technique & logistique : Manuel Goepfert

Contact : metmap@orbifly.com




SOURCES & CREDITS :

   NOAA